Time;durP1;ratioP1;P1;durP2;ratioP2;P2;SDS_P1;SDS_P2;PMS_P1;PMS_P2;Temp;Humidity;BMP_temperature;BMP_pressure;BME280_temperature;BME280_humidity;BME280_pressure;Samples;Min_cycle;Max_cycle;Signal;HPM_P1;HPM_P2
2020/12/21 00:03:04;;;;;;;4.90;4.50;;;;;;;8.80;72.32;96088.03;6964306;28;20825;-70
2020/12/21 00:06:24;;;;;;;5.33;4.67;;;;;;;8.84;72.96;96092.19;6966389;28;20227;-70
2020/12/21 00:09:45;;;;;;;4.97;4.50;;;;;;;8.84;72.77;96097.47;6978065;28;20212;-71
2020/12/21 00:13:06;;;;;;;3.73;3.43;;;;;;;8.78;72.42;96091.75;6975135;28;20240;-70
2020/12/21 00:16:34;;;;;;;4.77;3.83;;;;;;;8.76;72.52;96086.53;6983411;28;20223;-71
2020/12/21 00:19:54;;;;;;;4.90;3.83;;;;;;;8.83;73.16;96074.59;6978108;28;20416;-71
2020/12/21 00:23:15;;;;;;;4.60;4.20;;;;;;;8.87;72.98;96089.31;6949724;28;20215;-71
2020/12/21 00:26:35;;;;;;;4.80;4.30;;;;;;;8.79;73.13;96090.81;6983399;28;20596;-70
2020/12/21 00:29:56;;;;;;;5.37;4.87;;;;;;;8.76;73.83;96104.22;6967423;28;20225;-70
2020/12/21 00:33:17;;;;;;;4.87;4.37;;;;;;;8.78;73.33;96105.84;6970835;28;20252;-71
2020/12/21 00:36:42;;;;;;;4.80;4.40;;;;;;;8.80;73.70;96095.97;6979232;28;20226;-70
2020/12/21 00:40:04;;;;;;;3.50;3.20;;;;;;;8.75;73.29;96087.50;6969354;28;20227;-70
2020/12/21 00:43:25;;;;;;;3.60;3.30;;;;;;;8.76;73.35;96089.19;6977611;28;20220;-71
2020/12/21 00:46:48;;;;;;;4.90;2.87;;;;;;;8.81;73.24;96081.78;6968258;28;20218;-71
2020/12/21 00:50:08;;;;;;;3.37;3.07;;;;;;;8.85;73.10;96077.97;6969454;28;20233;-71
2020/12/21 00:53:29;;;;;;;3.47;3.07;;;;;;;8.85;72.95;96083.25;6988038;28;20629;-71
2020/12/21 00:56:49;;;;;;;4.07;3.67;;;;;;;8.83;72.74;96087.84;7018832;28;20767;-70
2020/12/21 01:00:10;;;;;;;2.80;2.60;;;;;;;8.84;72.67;96094.84;7005813;28;20221;-71
2020/12/21 01:03:30;;;;;;;3.60;3.30;;;;;;;8.87;72.98;96102.56;7009991;28;20215;-71
2020/12/21 01:06:54;;;;;;;3.43;3.13;;;;;;;8.89;72.78;96095.38;7000114;28;20206;-70
2020/12/21 01:10:14;;;;;;;3.70;3.40;;;;;;;8.90;72.81;96097.03;7028251;28;20214;-70
2020/12/21 01:13:35;;;;;;;3.50;3.20;;;;;;;8.88;72.27;96084.88;7025124;28;20246;-70
2020/12/21 01:16:58;;;;;;;2.40;2.20;;;;;;;8.81;72.33;96089.72;7019356;27;20278;-70
2020/12/21 01:20:18;;;;;;;4.53;2.67;;;;;;;8.72;71.61;96090.38;7031647;27;20220;-70
2020/12/21 01:23:38;;;;;;;3.93;3.43;;;;;;;8.67;72.17;96088.97;7021473;28;20297;-71
2020/12/21 01:26:59;;;;;;;3.60;2.80;;;;;;;8.67;72.24;96097.78;7025901;28;20327;-70
2020/12/21 01:30:19;;;;;;;3.07;2.40;;;;;;;8.66;72.39;96090.78;7014049;28;20242;-70
2020/12/21 01:33:39;;;;;;;3.87;2.70;;;;;;;8.69;72.11;96087.94;7028675;28;20685;-71
2020/12/21 01:37:00;;;;;;;3.30;2.60;;;;;;;8.67;71.81;96094.28;7023234;27;20349;-70
2020/12/21 01:40:20;;;;;;;2.63;2.23;;;;;;;8.60;72.27;96094.69;7025730;27;20238;-70
2020/12/21 01:43:41;;;;;;;3.20;2.90;;;;;;;8.53;71.73;96087.28;7024148;28;20227;-70
2020/12/21 01:47:01;;;;;;;2.40;2.10;;;;;;;8.46;71.76;96089.47;7034902;28;20218;-70
2020/12/21 01:50:22;;;;;;;3.73;1.90;;;;;;;8.44;71.51;96080.81;7029603;28;20257;-70
2020/12/21 01:53:42;;;;;;;2.93;2.03;;;;;;;8.35;71.43;96085.88;7027717;28;20306;-70
2020/12/21 01:57:05;;;;;;;4.27;3.80;;;;;;;8.32;72.00;96086.06;7004714;28;20210;-71
2020/12/21 02:00:28;;;;;;;5.33;4.83;;;;;;;8.34;72.88;96079.72;7008170;28;20263;-70
2020/12/21 02:03:49;;;;;;;3.40;3.10;;;;;;;8.32;73.08;96080.75;7022149;27;20217;-70
2020/12/21 02:07:12;;;;;;;4.53;3.77;;;;;;;8.27;72.73;96081.03;7015105;28;20309;-70
2020/12/21 02:10:32;;;;;;;6.57;5.97;;;;;;;8.25;72.85;96055.66;7033988;28;20228;-70
2020/12/21 02:13:53;;;;;;;6.10;5.50;;;;;;;8.25;73.24;96045.88;7026577;28;20594;-70
2020/12/21 02:17:13;;;;;;;5.33;4.83;;;;;;;8.15;73.27;96056.22;7044700;27;20242;-70
2020/12/21 02:20:34;;;;;;;4.63;4.23;;;;;;;8.08;73.02;96040.88;7027352;28;20425;-71
2020/12/21 02:23:54;;;;;;;5.70;5.20;;;;;;;8.03;73.27;96037.69;7031561;27;20268;-71
2020/12/21 02:27:15;;;;;;;4.93;4.43;;;;;;;7.98;73.10;96039.81;7018897;28;20241;-70
2020/12/21 02:30:35;;;;;;;4.57;4.17;;;;;;;7.86;72.89;96054.66;7002497;28;20305;-70
2020/12/21 02:33:56;;;;;;;4.17;3.60;;;;;;;7.74;72.60;96040.47;7026041;27;20209;-71
2020/12/21 02:37:16;;;;;;;2.97;2.67;;;;;;;7.65;72.65;96040.19;7014197;28;20245;-70
2020/12/21 02:40:37;;;;;;;4.27;1.90;;;;;;;7.56;73.24;96035.50;7028055;28;20239;-70
2020/12/21 02:44:00;;;;;;;2.70;1.60;;;;;;;7.56;72.97;96032.88;7019884;28;20210;-71
2020/12/21 02:47:21;;;;;;;2.17;1.47;;;;;;;7.53;72.54;96033.94;7020190;28;20301;-70
2020/12/21 02:50:42;;;;;;;1.77;1.30;;;;;;;7.51;72.43;96027.03;7014098;28;20226;-68
2020/12/21 02:54:02;;;;;;;3.83;1.60;;;;;;;7.55;72.15;96033.81;7034259;28;20236;-70
2020/12/21 02:57:24;;;;;;;3.20;1.80;;;;;;;7.62;72.33;96032.47;6997420;28;20218;-70
2020/12/21 03:00:44;;;;;;;1.57;1.20;;;;;;;7.65;71.68;96042.84;7010714;28;20654;-70
2020/12/21 03:04:04;;;;;;;4.07;1.50;;;;;;;7.65;71.48;96038.41;7019250;28;20696;-71
2020/12/21 03:07:27;;;;;;;3.13;1.40;;;;;;;7.67;71.25;96027.75;7035495;28;20210;-70
2020/12/21 03:10:47;;;;;;;1.70;1.30;;;;;;;7.64;70.95;96026.16;7004898;28;20223;-70
2020/12/21 03:14:08;;;;;;;3.10;2.07;;;;;;;7.65;71.05;96033.13;7000926;28;20316;-71
2020/12/21 03:17:28;;;;;;;173.23;139.30;;;;;;;7.54;70.93;96038.28;7018435;28;20256;-70
2020/12/21 03:20:48;;;;;;;31.47;24.40;;;;;;;7.51;71.35;96034.97;7020714;28;20216;-71
2020/12/21 03:24:09;;;;;;;6.23;3.07;;;;;;;7.47;71.37;96036.97;7026922;28;20283;-70
2020/12/21 03:27:29;;;;;;;2.30;2.07;;;;;;;7.40;71.75;96024.22;7015352;28;20203;-70
2020/12/21 03:30:52;;;;;;;3.17;2.27;;;;;;;7.34;71.62;96023.66;7013147;28;20583;-71
2020/12/21 03:34:16;;;;;;;4.00;1.87;;;;;;;7.36;71.23;96020.09;7027184;28;20343;-70
2020/12/21 03:37:36;;;;;;;2.50;1.70;;;;;;;7.31;71.55;96000.09;6984403;28;20216;-70
2020/12/21 03:40:59;;;;;;;4.13;1.80;;;;;;;7.25;71.15;95986.41;6999582;28;20219;-70
2020/12/21 03:44:19;;;;;;;2.47;1.80;;;;;;;7.19;71.49;95982.38;6987673;28;20206;-70
2020/12/21 03:47:40;;;;;;;3.53;1.70;;;;;;;7.16;71.49;95979.94;6994980;28;20217;-70
2020/12/21 03:51:00;;;;;;;3.43;1.87;;;;;;;7.17;71.86;95979.00;6987682;28;20213;-70
2020/12/21 03:54:21;;;;;;;2.63;2.03;;;;;;;7.23;72.06;95964.56;7015591;28;20286;-70
2020/12/21 03:57:42;;;;;;;2.03;1.73;;;;;;;7.25;72.00;95963.50;6997924;28;20213;-70
2020/12/21 04:01:02;;;;;;;2.93;1.80;;;;;;;7.24;71.54;95953.88;6997347;28;20229;-71
2020/12/21 04:04:23;;;;;;;3.43;1.70;;;;;;;7.29;71.53;95970.28;6986033;28;20273;-70
2020/12/21 04:07:43;;;;;;;2.47;1.57;;;;;;;7.30;70.89;95974.63;6996098;28;20257;-70
2020/12/21 04:11:05;;;;;;;1.87;1.57;;;;;;;7.24;70.59;95972.34;6996569;28;20639;-70
2020/12/21 04:14:26;;;;;;;2.53;1.53;;;;;;;7.18;71.27;95966.66;7004047;28;20214;-70
2020/12/21 04:17:46;;;;;;;1.60;1.50;;;;;;;7.22;70.79;95973.41;7002262;27;20212;-67
2020/12/21 04:21:11;;;;;;;4.60;1.60;;;;;;;7.23;70.72;95973.34;7034090;27;20635;-70
2020/12/21 04:24:31;;;;;;;4.60;1.70;;;;;;;7.19;70.59;95971.81;7030788;28;20209;-70
2020/12/21 04:27:51;;;;;;;2.13;1.60;;;;;;;7.20;70.69;95977.94;7015033;28;20297;-70
2020/12/21 04:31:12;;;;;;;2.87;1.67;;;;;;;7.20;70.54;95968.22;7006790;28;20947;-70
2020/12/21 04:34:32;;;;;;;2.57;1.53;;;;;;;7.17;70.78;95978.16;7025608;28;20719;-70
2020/12/21 04:37:53;;;;;;;2.53;1.30;;;;;;;7.12;70.67;95970.53;7020421;27;20834;-71
2020/12/21 04:41:13;;;;;;;5.17;3.53;;;;;;;7.13;70.94;95974.03;7025894;28;20221;-70
2020/12/21 04:44:34;;;;;;;3.13;2.03;;;;;;;7.08;70.55;95971.66;7001453;28;20350;-70
2020/12/21 04:47:55;;;;;;;2.47;2.07;;;;;;;6.99;70.33;95971.41;7022244;28;20245;-70
2020/12/21 04:51:17;;;;;;;1.93;1.80;;;;;;;6.90;70.07;95955.19;7004182;27;20211;-70
2020/12/21 04:54:39;;;;;;;2.93;1.67;;;;;;;6.90;70.56;95936.69;7027872;28;20245;-71
2020/12/21 04:58:00;;;;;;;2.47;1.50;;;;;;;6.90;70.62;95939.34;7019018;28;20214;-70
2020/12/21 05:01:21;;;;;;;1.73;1.63;;;;;;;6.84;70.23;95945.00;7026622;28;20217;-70
2020/12/21 05:04:51;;;;;;;2.50;1.53;;;;;;;6.85;70.41;95938.78;7016614;28;20212;-70
2020/12/21 05:08:19;;;;;;;2.53;1.63;;;;;;;6.89;70.91;95927.09;7018708;28;20215;-70
2020/12/21 05:11:39;;;;;;;1.50;1.37;;;;;;;6.86;70.58;95937.84;7020656;28;20291;-70
2020/12/21 05:14:59;;;;;;;2.87;1.47;;;;;;;6.88;71.09;95924.56;7034286;28;20240;-71
2020/12/21 05:18:31;;;;;;;5.87;2.07;;;;;;;6.89;71.08;95926.25;7027305;28;20217;-69
2020/12/21 05:21:54;;;;;;;1.83;1.70;;;;;;;6.82;70.74;95930.22;7027128;28;20218;-70
2020/12/21 05:25:20;;;;;;;2.80;1.60;;;;;;;6.83;70.99;95930.13;7027797;27;20217;-70
2020/12/21 05:28:44;;;;;;;3.60;1.70;;;;;;;6.85;71.34;95930.88;7021520;28;20202;-70
2020/12/21 05:32:04;;;;;;;2.80;2.17;;;;;;;6.87;71.43;95941.34;7014461;28;20210;-71
2020/12/21 05:35:27;;;;;;;5.57;3.83;;;;;;;6.77;70.97;95937.59;7012672;27;20225;-71
2020/12/21 05:38:57;;;;;;;4.60;4.20;;;;;;;6.64;70.46;95932.22;6990154;28;20550;-70
2020/12/21 05:42:17;;;;;;;4.90;4.33;;;;;;;6.54;70.92;95940.81;7005685;28;20548;-71
2020/12/21 05:45:41;;;;;;;4.87;2.90;;;;;;;6.55;71.29;95929.31;7008892;28;20698;-71
2020/12/21 05:49:01;;;;;;;3.30;1.87;;;;;;;6.63;71.37;95917.34;7018845;28;20584;-70
2020/12/21 05:52:35;;;;;;;2.40;1.80;;;;;;;6.70;71.44;95912.50;6969110;28;20222;-70
2020/12/21 05:55:55;;;;;;;2.00;1.50;;;;;;;6.77;71.82;95908.53;6993193;28;20213;-71
2020/12/21 05:59:17;;;;;;;4.27;1.90;;;;;;;6.85;71.83;95922.09;7014954;28;20234;-71
2020/12/21 06:02:37;;;;;;;2.10;1.40;;;;;;;6.84;71.46;95912.50;6999193;28;20220;-71
2020/12/21 06:06:06;;;;;;;2.57;1.50;;;;;;;6.81;71.57;95907.41;7007049;28;20218;-71
2020/12/21 06:09:30;;;;;;;6.63;2.60;;;;;;;6.77;71.01;95916.47;7012605;28;20689;-71
2020/12/21 06:12:53;;;;;;;53.60;3.50;;;;;;;6.62;70.52;95938.53;7003259;28;20278;-71
2020/12/21 06:16:16;;;;;;;13.20;1.93;;;;;;;6.47;69.81;95935.91;7021248;28;20223;-71
2020/12/21 06:19:36;;;;;;;4.80;1.97;;;;;;;6.37;70.09;95939.22;7036926;27;20213;-71
2020/12/21 06:22:56;;;;;;;2.43;1.70;;;;;;;6.25;70.04;95939.94;7015049;27;20212;-70
2020/12/21 06:26:17;;;;;;;3.00;1.87;;;;;;;6.24;70.58;95943.53;7016804;28;20232;-71
2020/12/21 06:29:37;;;;;;;1.83;1.73;;;;;;;6.21;70.73;95941.94;7008242;28;20213;-71
2020/12/21 06:33:04;;;;;;;1.60;1.50;;;;;;;6.25;70.80;95946.06;6995281;28;20229;-70
2020/12/21 06:36:30;;;;;;;1.47;1.37;;;;;;;6.30;70.45;95949.28;7017879;28;20226;-71
2020/12/21 06:40:02;;;;;;;2.60;2.40;;;;;;;6.28;70.77;95945.06;6995871;28;20206;-71
2020/12/21 06:43:25;;;;;;;2.57;2.37;;;;;;;6.28;70.93;95952.97;6989857;28;20220;-71
2020/12/21 06:46:45;;;;;;;3.10;2.00;;;;;;;6.28;71.22;95950.34;7008668;28;20225;-72
2020/12/21 06:50:06;;;;;;;3.40;1.63;;;;;;;6.38;71.90;95962.03;7001652;28;20221;-71
2020/12/21 06:53:26;;;;;;;2.00;1.60;;;;;;;6.51;72.16;95962.09;7015071;28;20273;-69
2020/12/21 06:56:48;;;;;;;2.43;1.80;;;;;;;6.61;72.18;95961.44;7019465;28;20604;-71
2020/12/21 07:00:09;;;;;;;1.80;1.53;;;;;;;6.73;72.16;95965.97;6979916;28;20269;-71
2020/12/21 07:03:29;;;;;;;2.70;1.63;;;;;;;6.82;72.29;95961.91;6972791;28;20207;-70
2020/12/21 07:06:50;;;;;;;2.73;1.80;;;;;;;6.82;72.32;95956.63;6983724;28;20310;-71
2020/12/21 07:10:16;;;;;;;2.17;1.70;;;;;;;6.82;72.60;95954.84;6949867;28;20238;-71
2020/12/21 07:13:36;;;;;;;4.63;4.10;;;;;;;6.85;72.01;95956.41;6968259;28;20211;-71
2020/12/21 07:17:11;;;;;;;6.07;5.47;;;;;;;6.79;71.80;95955.00;6971608;28;20215;-71
2020/12/21 07:20:32;;;;;;;4.90;4.40;;;;;;;6.75;71.63;95958.78;6973877;28;20294;-71
2020/12/21 07:23:56;;;;;;;4.80;4.40;;;;;;;6.73;71.43;95944.00;6971636;28;20215;-71
2020/12/21 07:27:16;;;;;;;4.30;3.30;;;;;;;6.65;71.26;95960.31;6956846;28;20237;-71
2020/12/21 07:30:37;;;;;;;2.40;2.20;;;;;;;6.64;71.60;95949.88;6996958;28;20289;-72
2020/12/21 07:33:59;;;;;;;2.23;2.03;;;;;;;6.74;72.43;95949.16;6985706;28;20217;-72
2020/12/21 07:37:19;;;;;;;2.40;2.20;;;;;;;6.86;72.76;95945.78;6986950;28;20294;-72
2020/12/21 07:40:40;;;;;;;3.90;2.50;;;;;;;7.01;72.72;95954.50;7016387;27;20717;-72
2020/12/21 07:44:12;;;;;;;3.77;2.20;;;;;;;7.15;72.88;95948.34;6985651;28;20226;-71
2020/12/21 07:47:34;;;;;;;16.00;14.20;;;;;;;7.29;73.08;95959.72;6988074;28;20218;-72
2020/12/21 07:50:55;;;;;;;9.07;8.17;;;;;;;7.39;72.47;95972.34;6960359;28;20214;-72
2020/12/21 07:54:15;;;;;;;5.37;4.43;;;;;;;7.45;72.48;95966.63;7010899;28;20210;-72
2020/12/21 07:57:36;;;;;;;5.27;2.97;;;;;;;7.55;72.80;95965.94;7008607;28;20210;-72
2020/12/21 08:00:58;;;;;;;3.13;2.83;;;;;;;7.65;72.44;95977.59;7003817;28;20873;-73
2020/12/21 08:04:18;;;;;;;4.47;2.30;;;;;;;7.72;72.21;95988.63;6974717;28;20384;-73
2020/12/21 08:07:39;;;;;;;3.20;2.97;;;;;;;7.78;72.29;95980.31;6999934;28;20205;-72
2020/12/21 08:10:59;;;;;;;4.03;3.20;;;;;;;7.83;72.20;95985.28;6992095;28;20678;-72
2020/12/21 08:14:20;;;;;;;3.23;2.93;;;;;;;7.88;71.67;95984.03;6999256;28;20218;-73
2020/12/21 08:17:40;;;;;;;4.73;4.23;;;;;;;7.95;71.65;95990.59;6981432;28;20209;-73
2020/12/21 08:21:01;;;;;;;3.73;3.43;;;;;;;8.01;71.13;95987.53;6977780;28;20741;-72
2020/12/21 08:24:21;;;;;;;18.10;5.33;;;;;;;7.86;69.63;95982.41;6993499;28;20211;-71
2020/12/21 08:27:51;;;;;;;6.93;4.37;;;;;;;7.57;70.19;95987.00;6970062;28;20204;-71
2020/12/21 08:31:14;;;;;;;3.83;3.10;;;;;;;7.37;69.54;95988.28;6989619;28;20234;-71
2020/12/21 08:34:34;;;;;;;4.97;4.10;;;;;;;7.24;70.29;95984.75;6988697;28;20209;-70
2020/12/21 08:38:07;;;;;;;6.20;4.50;;;;;;;7.17;70.55;95994.84;6988388;28;20209;-70
2020/12/21 08:41:34;;;;;;;7.20;4.40;;;;;;;7.20;70.85;95997.28;6991271;28;20912;-70
2020/12/21 08:44:55;;;;;;;6.93;4.43;;;;;;;7.20;70.86;95994.66;6983174;28;20236;-71
2020/12/21 08:48:15;;;;;;;7.60;5.93;;;;;;;7.26;71.28;95996.91;6978738;28;20223;-70
2020/12/21 08:51:35;;;;;;;12.40;11.10;;;;;;;7.35;72.02;95990.16;6979178;28;20211;-71
2020/12/21 08:54:56;;;;;;;10.30;9.23;;;;;;;7.48;71.84;95992.88;6991504;28;20222;-71
2020/12/21 08:58:16;;;;;;;7.23;6.50;;;;;;;7.61;71.69;95989.34;6999437;28;20202;-71
2020/12/21 09:01:40;;;;;;;2.40;2.20;;;;;;;7.60;71.30;95989.41;7003209;28;20300;-71
2020/12/21 09:05:03;;;;;;;2.50;2.30;;;;;;;7.53;70.16;95980.22;7002299;28;20221;-70
2020/12/21 09:08:24;;;;;;;3.10;2.80;;;;;;;7.53;70.46;95969.66;7017727;28;20291;-71
2020/12/21 09:11:44;;;;;;;3.80;3.50;;;;;;;7.51;70.63;95968.88;7015283;27;20208;-73
2020/12/21 09:15:04;;;;;;;3.90;3.60;;;;;;;7.49;70.21;95978.72;7025182;28;20569;-71
2020/12/21 09:18:25;;;;;;;5.73;5.17;;;;;;;7.47;70.77;95975.31;7027616;28;20209;-71
2020/12/21 09:21:47;;;;;;;5.83;4.77;;;;;;;7.46;70.55;95981.56;7017350;27;20292;-71
2020/12/21 09:25:08;;;;;;;4.43;3.43;;;;;;;7.48;71.17;95980.53;6997324;28;20210;-71
2020/12/21 09:28:28;;;;;;;4.83;4.40;;;;;;;7.48;71.12;95964.66;7017062;28;20210;-71
2020/12/21 09:31:51;;;;;;;4.10;3.80;;;;;;;7.51;71.47;95987.38;7014604;28;20263;-71
2020/12/21 09:35:12;;;;;;;3.63;2.80;;;;;;;7.62;71.95;95972.53;7002460;28;20214;-71
2020/12/21 09:38:32;;;;;;;2.50;2.10;;;;;;;7.74;71.80;95977.03;7014353;28;20989;-70
2020/12/21 09:41:54;;;;;;;3.30;2.40;;;;;;;7.88;71.53;95978.75;7031300;28;20667;-71
2020/12/21 09:45:15;;;;;;;2.97;2.67;;;;;;;8.00;71.20;95982.34;7015917;28;20210;-71
2020/12/21 09:48:36;;;;;;;3.30;3.00;;;;;;;8.13;71.19;95973.50;7013896;27;20233;-71
2020/12/21 09:51:56;;;;;;;11.83;10.73;;;;;;;8.17;71.05;95982.91;7030174;28;20209;-71
2020/12/21 09:55:17;;;;;;;9.77;8.87;;;;;;;8.13;70.82;95981.44;6992506;28;20223;-71
2020/12/21 09:58:38;;;;;;;5.30;4.80;;;;;;;8.09;70.97;95953.50;7021101;27;20237;-72
2020/12/21 10:01:58;;;;;;;5.57;4.63;;;;;;;8.06;70.92;95985.44;7010251;28;20218;-71
2020/12/21 10:05:18;;;;;;;4.77;4.37;;;;;;;7.99;71.26;95973.59;6992460;28;20219;-71
2020/12/21 10:08:40;;;;;;;5.60;5.10;;;;;;;8.01;70.97;95984.91;7022565;28;20221;-70
2020/12/21 10:12:00;;;;;;;8.43;5.60;;;;;;;8.01;70.86;95976.97;6982831;28;20296;-71
2020/12/21 10:15:20;;;;;;;4.70;4.30;;;;;;;8.01;71.25;95978.75;7002829;28;20212;-72
2020/12/21 10:18:41;;;;;;;4.87;4.47;;;;;;;7.88;70.73;95959.38;6992105;28;20214;-71
2020/12/21 10:22:02;;;;;;;4.87;4.10;;;;;;;7.80;71.05;95941.38;7010714;28;20735;-71
2020/12/21 10:25:23;;;;;;;5.93;5.33;;;;;;;7.82;71.86;95949.22;6987089;28;20223;-71
2020/12/21 10:28:43;;;;;;;4.27;3.87;;;;;;;7.92;72.13;95966.16;7010530;28;20209;-71
2020/12/21 10:32:03;;;;;;;3.63;3.33;;;;;;;8.01;72.08;95950.50;6997767;28;20216;-69
2020/12/21 10:35:24;;;;;;;3.57;3.27;;;;;;;8.08;71.84;95932.44;6990356;28;20687;-71
2020/12/21 10:38:44;;;;;;;6.53;4.60;;;;;;;8.13;72.28;95912.66;6987960;28;20205;-71
2020/12/21 10:42:08;;;;;;;3.57;3.27;;;;;;;8.15;72.08;95947.78;6977596;28;20242;-73
2020/12/21 10:45:28;;;;;;;3.73;3.10;;;;;;;8.21;72.34;95922.69;6985949;28;20226;-70
2020/12/21 10:48:48;;;;;;;3.13;2.60;;;;;;;8.31;72.37;95912.34;7001206;28;20214;-71
2020/12/21 10:52:09;;;;;;;3.17;2.50;;;;;;;8.34;71.49;95910.38;6998706;28;20228;-70
2020/12/21 10:55:29;;;;;;;3.90;3.60;;;;;;;8.31;71.22;95912.34;6996362;28;20679;-71
2020/12/21 10:58:50;;;;;;;4.30;3.93;;;;;;;8.33;71.37;95913.09;7011987;28;20201;-71
2020/12/21 11:02:10;;;;;;;5.17;4.67;;;;;;;8.37;71.76;95899.56;7000863;28;20586;-71
2020/12/21 11:05:31;;;;;;;15.10;11.13;;;;;;;8.45;72.20;95885.78;7020503;28;20686;-71
2020/12/21 11:08:52;;;;;;;5.53;5.00;;;;;;;8.57;71.97;95903.44;7008522;28;20209;-71
2020/12/21 11:12:13;;;;;;;3.40;3.10;;;;;;;8.58;71.66;95894.56;7023691;28;20229;-71
2020/12/21 11:15:33;;;;;;;3.37;2.60;;;;;;;8.73;71.36;95892.63;7017072;28;20249;-72
2020/12/21 11:18:54;;;;;;;2.63;2.40;;;;;;;8.87;71.51;95895.13;7025460;28;20595;-71
2020/12/21 11:22:14;;;;;;;3.57;3.23;;;;;;;9.04;70.44;95877.06;7022131;28;20246;-71
2020/12/21 11:25:36;;;;;;;3.67;3.37;;;;;;;9.14;69.62;95894.94;7015412;28;20280;-71
2020/12/21 11:28:56;;;;;;;3.37;3.03;;;;;;;9.28;68.68;95886.81;6998120;28;20779;-71
2020/12/21 11:32:16;;;;;;;3.37;3.07;;;;;;;9.41;68.01;95888.44;7019263;28;20212;-71
2020/12/21 11:35:37;;;;;;;3.70;3.20;;;;;;;9.57;67.83;95874.03;7022088;28;20213;-71
2020/12/21 11:38:57;;;;;;;5.20;3.57;;;;;;;9.75;67.94;95862.06;7013333;28;20738;-71
2020/12/21 11:42:18;;;;;;;4.20;3.80;;;;;;;9.84;66.42;95850.75;7025481;27;20217;-72
2020/12/21 11:45:38;;;;;;;3.70;3.40;;;;;;;9.95;66.66;95849.94;7018440;28;20217;-71
2020/12/21 11:49:01;;;;;;;4.23;3.80;;;;;;;10.07;66.34;95841.84;7014669;28;20208;-71
2020/12/21 11:52:22;;;;;;;4.20;3.80;;;;;;;10.29;66.34;95812.72;6990747;28;20213;-72
2020/12/21 11:55:42;;;;;;;5.20;4.70;;;;;;;10.48;65.98;95821.88;6996109;28;20224;-71
2020/12/21 11:59:03;;;;;;;4.47;4.07;;;;;;;10.66;65.40;95820.44;6990228;28;20603;-72
2020/12/21 12:02:23;;;;;;;5.90;4.50;;;;;;;10.75;64.97;95820.53;7014275;28;20738;-72
2020/12/21 12:05:46;;;;;;;4.87;4.10;;;;;;;10.84;64.50;95810.97;7021581;28;20197;-71
2020/12/21 12:09:06;;;;;;;6.60;5.20;;;;;;;10.91;63.99;95808.66;7014763;27;20217;-69
2020/12/21 12:12:29;;;;;;;5.63;4.70;;;;;;;11.06;64.24;95812.72;7020864;28;20313;-72
2020/12/21 12:15:51;;;;;;;5.50;4.90;;;;;;;11.18;64.33;95804.56;7016861;28;20294;-71
2020/12/21 12:19:12;;;;;;;5.63;4.80;;;;;;;11.25;63.90;95802.25;7022021;28;20229;-71
2020/12/21 12:22:34;;;;;;;5.27;4.43;;;;;;;11.28;62.73;95787.84;7006637;28;20222;-72
2020/12/21 12:25:54;;;;;;;7.00;4.47;;;;;;;11.26;62.59;95785.34;7020735;28;20670;-71
2020/12/21 12:29:15;;;;;;;5.20;4.70;;;;;;;11.25;62.18;95783.66;7010030;28;20202;-71
2020/12/21 12:32:37;;;;;;;4.40;4.00;;;;;;;11.26;61.66;95781.84;7023864;27;20295;-71
2020/12/21 12:35:58;;;;;;;4.80;4.30;;;;;;;11.26;61.36;95788.00;7022895;28;20232;-71
2020/12/21 12:39:21;;;;;;;4.93;3.80;;;;;;;11.27;60.82;95781.69;7027330;28;20237;-72
2020/12/21 12:42:41;;;;;;;4.07;3.57;;;;;;;11.24;60.74;95778.47;7016815;28;20223;-72
2020/12/21 12:46:03;;;;;;;5.50;4.90;;;;;;;11.18;61.31;95766.50;6996553;28;20565;-71
2020/12/21 12:49:23;;;;;;;7.63;6.10;;;;;;;11.17;62.25;95770.13;7014761;28;20677;-71
2020/12/21 12:52:44;;;;;;;6.30;5.70;;;;;;;11.15;62.56;95757.00;7021823;28;20682;-71
2020/12/21 12:56:08;;;;;;;5.57;5.03;;;;;;;11.15;62.90;95753.50;7026734;27;20228;-72
2020/12/21 12:59:30;;;;;;;5.97;4.97;;;;;;;11.17;63.04;95762.16;6999658;28;20214;-71
2020/12/21 13:02:51;;;;;;;5.23;4.73;;;;;;;11.20;63.05;95756.59;6985482;28;20205;-72
2020/12/21 13:06:11;;;;;;;4.50;4.00;;;;;;;11.25;62.62;95751.75;6995671;28;20219;-71
2020/12/21 13:09:32;;;;;;;5.53;4.53;;;;;;;11.32;62.24;95755.56;6994766;28;20238;-72
2020/12/21 13:12:52;;;;;;;3.60;3.00;;;;;;;11.36;60.77;95759.69;6984963;28;20217;-71
2020/12/21 13:16:13;;;;;;;2.93;2.63;;;;;;;11.40;60.05;95746.97;6994043;28;20218;-71
2020/12/21 13:19:33;;;;;;;6.60;4.53;;;;;;;11.43;58.62;95741.38;7009825;28;20221;-71
2020/12/21 13:22:56;;;;;;;2.33;2.13;;;;;;;11.45;58.68;95740.28;7009915;28;20248;-72
2020/12/21 13:26:18;;;;;;;2.10;1.90;;;;;;;11.45;57.37;95737.63;7004276;28;20256;-71
2020/12/21 13:29:38;;;;;;;48.67;38.20;;;;;;;11.45;57.25;95737.63;7017324;27;20609;-71
2020/12/21 13:32:59;;;;;;;3.53;3.20;;;;;;;11.43;56.88;95728.94;7022228;28;20701;-71
2020/12/21 13:36:19;;;;;;;2.20;2.00;;;;;;;11.42;56.33;95724.56;7009906;28;20229;-71
2020/12/21 13:39:40;;;;;;;3.70;2.60;;;;;;;11.39;56.62;95730.16;7019998;28;20208;-71
2020/12/21 13:43:03;;;;;;;5.00;4.07;;;;;;;11.41;57.55;95730.03;7007455;28;20292;-71
2020/12/21 13:46:23;;;;;;;4.03;3.70;;;;;;;11.39;58.30;95742.63;7003316;28;20218;-72
2020/12/21 13:49:44;;;;;;;7.53;6.87;;;;;;;11.35;58.12;95731.41;7011323;28;20205;-72
2020/12/21 13:53:04;;;;;;;3.60;3.30;;;;;;;11.23;56.84;95727.09;7024811;27;20222;-72
2020/12/21 13:56:24;;;;;;;3.90;3.50;;;;;;;11.15;58.20;95697.66;6999264;28;20260;-72
2020/12/21 13:59:45;;;;;;;3.73;2.60;;;;;;;11.15;58.10;95697.66;7004486;28;20203;-72
2020/12/21 14:03:05;;;;;;;2.53;2.33;;;;;;;11.13;58.01;95697.78;6972525;28;20254;-72
2020/12/21 14:06:28;;;;;;;2.30;2.10;;;;;;;11.12;57.69;95681.97;6995785;28;20206;-72
2020/12/21 14:09:48;;;;;;;2.23;1.97;;;;;;;11.10;57.48;95679.44;7005392;28;20227;-72
2020/12/21 14:13:13;;;;;;;2.63;2.40;;;;;;;11.12;57.42;95679.31;7012915;28;20648;-72
2020/12/21 14:16:35;;;;;;;2.37;2.17;;;;;;;11.16;57.23;95667.47;7022109;28;20243;-72
2020/12/21 14:19:56;;;;;;;2.13;1.93;;;;;;;11.17;56.86;95656.69;7014747;28;20208;-72
2020/12/21 14:23:16;;;;;;;2.40;2.20;;;;;;;11.17;56.45;95662.00;7007678;28;20202;-72
2020/12/21 14:26:37;;;;;;;2.20;1.93;;;;;;;11.14;56.45;95648.97;6984204;28;20201;-73
2020/12/21 14:29:57;;;;;;;2.10;1.90;;;;;;;11.15;56.12;95655.13;6997500;28;20214;-72
2020/12/21 14:33:18;;;;;;;1.80;1.63;;;;;;;11.12;55.80;95640.28;7016120;28;20217;-72
2020/12/21 14:36:38;;;;;;;1.83;1.73;;;;;;;11.12;55.26;95642.09;7018573;28;20643;-72
2020/12/21 14:39:59;;;;;;;2.07;1.87;;;;;;;11.12;55.58;95640.28;7023911;28;20218;-72
2020/12/21 14:43:19;;;;;;;1.93;1.77;;;;;;;11.15;55.01;95633.88;6997344;28;20213;-71
2020/12/21 14:46:40;;;;;;;1.70;1.60;;;;;;;11.18;55.02;95641.56;7002641;28;20212;-72
2020/12/21 14:50:00;;;;;;;1.43;1.20;;;;;;;11.17;54.78;95631.91;7003400;28;20217;-72
2020/12/21 14:53:20;;;;;;;2.43;1.40;;;;;;;11.21;55.21;95637.84;7013791;28;20214;-72
2020/12/21 14:56:41;;;;;;;1.00;1.00;;;;;;;11.27;55.02;95635.47;7012345;28;20306;-72
2020/12/21 15:00:04;;;;;;;1.43;1.33;;;;;;;11.32;54.79;95627.94;7019129;28;20229;-73
2020/12/21 15:03:24;;;;;;;1.47;1.30;;;;;;;11.34;54.36;95625.16;7013494;28;20292;-72
2020/12/21 15:06:44;;;;;;;2.07;1.87;;;;;;;11.33;54.63;95616.34;6986141;28;20213;-72
2020/12/21 15:10:09;;;;;;;1.53;1.43;;;;;;;11.38;54.07;95613.28;6988339;28;20206;-72
2020/12/21 15:13:30;;;;;;;2.70;2.50;;;;;;;11.39;53.07;95612.31;6978154;28;20210;-72
2020/12/21 15:16:50;;;;;;;6.77;5.87;;;;;;;11.39;53.50;95615.81;6993622;28;20215;-72
2020/12/21 15:20:11;;;;;;;3.33;2.80;;;;;;;11.44;53.61;95610.09;7026711;28;20213;-72
2020/12/21 15:23:32;;;;;;;5.33;4.00;;;;;;;11.47;53.42;95604.50;7011363;28;20214;-72
2020/12/21 15:26:54;;;;;;;1.30;1.20;;;;;;;11.46;52.86;95609.00;7035568;28;20201;-72
2020/12/21 15:30:19;;;;;;;2.23;1.90;;;;;;;11.44;52.66;95596.81;6987425;28;20226;-72
2020/12/21 15:33:42;;;;;;;2.47;1.50;;;;;;;11.44;53.26;95600.31;7008698;28;20221;-72
2020/12/21 15:37:02;;;;;;;1.33;1.10;;;;;;;11.47;53.27;95602.69;6961094;28;20210;-72
2020/12/21 15:40:23;;;;;;;4.77;4.00;;;;;;;11.48;53.40;95599.06;7011163;28;20215;-71
2020/12/21 15:43:43;;;;;;;3.40;1.10;;;;;;;11.47;52.73;95596.53;7027583;28;20327;-72
2020/12/21 15:47:04;;;;;;;0.90;0.90;;;;;;;11.49;53.10;95595.44;7011117;28;20272;-71
2020/12/21 15:50:28;;;;;;;1.30;1.20;;;;;;;11.53;52.90;95593.34;7013454;28;20226;-71
2020/12/21 15:53:51;;;;;;;1.33;1.23;;;;;;;11.56;53.41;95595.75;7022950;28;20228;-72
2020/12/21 15:57:11;;;;;;;2.10;2.00;;;;;;;11.58;53.19;95599.09;7023725;28;20677;-72